Time;durP1;ratioP1;P1;durP2;ratioP2;P2;SDS_P1;SDS_P2;PMS_P1;PMS_P2;Temp;Humidity;BMP_temperature;BMP_pressure;BME280_temperature;BME280_humidity;BME280_pressure;Samples;Min_cycle;Max_cycle;Signal;HPM_P1;HPM_P2
2024/02/21 05:46:26;;;;;;;;;;;;;;;-0.44;100.00;100802.55;110032;1275;22616;-50
2024/02/21 05:48:57;;;;;;;;;;;;;;;-0.43;100.00;100809.14;110021;1273;22464;-55
2024/02/21 05:51:23;;;;;;;;;;;;;;;-0.41;100.00;100812.84;110175;1278;22532;-54
2024/02/21 05:53:50;;;;;;;;;;;;;;;-0.39;100.00;100812.44;110237;1270;22446;-47
2024/02/21 05:56:18;;;;;;;;;;;;;;;-0.36;100.00;100808.77;110206;1273;22491;-47
2024/02/21 05:58:44;;;;;;;;;;;;;;;-0.35;100.00;100811.41;110210;1267;22493;-55
2024/02/21 06:01:11;;;;;;;;;;;;;;;-0.32;100.00;100817.56;110215;1269;22460;-55
2024/02/21 06:03:38;;;;;;;;;;;;;;;-0.32;100.00;100812.80;110219;1267;22418;-47
2024/02/21 06:06:04;;;;;;;;;;;;;;;-0.30;100.00;100819.55;110212;1273;23313;-48
2024/02/21 06:08:31;;;;;;;;;;;;;;;-0.30;100.00;100812.21;110203;1272;22420;-55
2024/02/21 06:10:58;;;;;;;;;;;;;;;-0.29;100.00;100819.92;110045;1267;23243;-55
2024/02/21 06:13:24;;;;;;;;;;;;;;;-0.29;100.00;100817.36;110079;1273;22478;-47
2024/02/21 06:15:51;;;;;;;;;;;;;;;-0.29;100.00;100815.19;110093;1274;23909;-54
2024/02/21 06:18:18;;;;;;;;;;;;;;;-0.26;100.00;100820.45;110050;1275;23713;-54
2024/02/21 06:20:48;;;;;;;;;;;;;;;-0.23;100.00;100825.24;109889;1270;22430;-48
2024/02/21 06:23:17;;;;;;;;;;;;;;;-0.18;100.00;100824.29;109867;1272;22563;-55
2024/02/21 06:25:47;;;;;;;;;;;;;;;-0.14;100.00;100823.12;109782;1276;22677;-56
2024/02/21 06:28:14;;;;;;;;;;;;;;;-0.12;100.00;100825.63;109749;1272;23734;-57
2024/02/21 06:30:41;;;;;;;;;;;;;;;-0.11;100.00;100828.98;109638;1272;22448;-47
2024/02/21 06:33:31;;;;;;;;;;;;;;;-0.09;100.00;100834.20;109633;1270;22589;-49
2024/02/21 06:36:53;;;;;;;;;;;;;;;-0.08;100.00;100839.23;109705;1270;23402;-58
2024/02/21 06:39:44;;;;;;;;;;;;;;;-0.08;100.00;100845.77;109737;1273;23618;-48
2024/02/21 06:46:47;;;;;;;;;;;;;;;-0.04;100.00;100842.52;109975;1264;22445;-55
2024/02/21 06:49:48;;;;;;;;;;;;;;;-0.02;100.00;100845.86;110055;1278;22494;-56
2024/02/21 06:52:17;;;;;;;;;;;;;;;-0.02;100.00;100847.95;109871;1278;23119;-49
2024/02/21 06:54:53;;;;;;;;;;;;;;;-0.01;100.00;100852.95;109715;1270;23995;-57
2024/02/21 06:57:39;;;;;;;;;;;;;;;0.00;100.00;100853.38;109872;1273;22446;-56
2024/02/21 07:00:43;;;;;;;;;;;;;;;0.02;100.00;100851.04;109898;1270;22468;-46
2024/02/21 07:03:31;;;;;;;;;;;;;;;0.03;100.00;100847.48;109791;1273;23330;-58
2024/02/21 07:06:06;;;;;;;;;;;;;;;0.06;100.00;100833.41;109668;1274;22488;-62
2024/02/21 07:08:35;;;;;;;;;;;;;;;0.09;100.00;100828.77;109795;1274;22457;-49
2024/02/21 07:11:04;;;;;;;;;;;;;;;0.13;100.00;100832.23;110034;1277;22743;-59
2024/02/21 07:13:41;;;;;;;;;;;;;;;0.17;100.00;100830.04;109844;1271;22510;-57
2024/02/21 07:16:14;;;;;;;;;;;;;;;0.21;100.00;100831.25;109851;1273;23297;-48
2024/02/21 07:19:30;;;;;;;;;;;;;;;0.26;100.00;100834.23;109809;1277;22525;-53
2024/02/21 07:25:55;;;;;;;;;;;;;;;0.34;100.00;100839.42;109749;1274;23382;-55
2024/02/21 07:28:42;;;;;;;;;;;;;;;0.38;100.00;100832.95;109721;1273;22446;-48
2024/02/21 07:31:10;;;;;;;;;;;;;;;0.45;100.00;100831.92;109940;1273;22484;-54
2024/02/21 07:33:41;;;;;;;;;;;;;;;0.51;100.00;100833.56;109681;1277;22449;-52
2024/02/21 07:36:10;;;;;;;;;;;;;;;0.53;100.00;100836.65;109792;1273;23772;-47
2024/02/21 07:38:39;;;;;;;;;;;;;;;0.55;100.00;100840.16;109738;1278;22481;-47
2024/02/21 07:41:05;;;;;;;;;;;;;;;0.55;100.00;100839.46;110113;1275;23171;-55
2024/02/21 07:43:33;;;;;;;;;;;;;;;0.55;100.00;100842.38;110135;1272;22648;-55
2024/02/21 07:46:03;;;;;;;;;;;;;;;0.56;100.00;100837.43;109904;1273;22833;-48
2024/02/21 07:48:31;;;;;;;;;;;;;;;0.57;100.00;100841.08;110026;1272;22835;-53
2024/02/21 07:51:02;;;;;;;;;;;;;;;0.58;100.00;100845.57;110131;1273;22448;-53
2024/02/21 07:53:29;;;;;;;;;;;;;;;0.56;100.00;100844.46;110191;1276;22468;-54
2024/02/21 07:55:56;;;;;;;;;;;;;;;0.57;100.00;100839.01;110125;1273;22463;-54
2024/02/21 07:58:23;;;;;;;;;;;;;;;0.58;100.00;100841.84;110182;1278;22456;-56
2024/02/21 08:00:50;;;;;;;;;;;;;;;0.60;100.00;100839.55;110073;1272;23155;-54
2024/02/21 08:03:17;;;;;;;;;;;;;;;0.64;100.00;100836.10;110195;1272;23409;-54
2024/02/21 08:05:44;;;;;;;;;;;;;;;0.66;100.00;100830.39;110108;1275;22552;-47
2024/02/21 08:08:18;;;;;;;;;;;;;;;0.70;100.00;100838.98;109962;1278;252207;-52
2024/02/21 08:10:45;;;;;;;;;;;;;;;0.74;100.00;100839.52;110181;1277;22564;-47
2024/02/21 08:13:13;;;;;;;;;;;;;;;0.78;100.00;100840.73;109678;1273;23746;-54
2024/02/21 08:15:41;;;;;;;;;;;;;;;0.79;100.00;100844.06;109847;1270;23696;-47
2024/02/21 08:18:08;;;;;;;;;;;;;;;0.79;100.00;100843.04;109741;1272;22483;-53
2024/02/21 08:20:36;;;;;;;;;;;;;;;0.83;100.00;100846.11;109807;1273;22443;-47
2024/02/21 08:23:07;;;;;;;;;;;;;;;0.88;100.00;100844.47;109723;1273;23184;-54
2024/02/21 08:25:35;;;;;;;;;;;;;;;0.89;100.00;100844.35;109898;1265;22507;-54
2024/02/21 08:28:22;;;;;;;;;;;;;;;0.89;100.00;100838.00;109630;1273;22465;-56
2024/02/21 08:31:07;;;;;;;;;;;;;;;0.91;100.00;100838.41;109848;1273;22455;-45
2024/02/21 08:33:37;;;;;;;;;;;;;;;0.93;100.00;100837.34;109570;1273;23329;-46
2024/02/21 08:36:22;;;;;;;;;;;;;;;0.95;100.00;100832.79;109646;1273;22584;-48
2024/02/21 08:38:49;;;;;;;;;;;;;;;0.95;100.00;100835.02;109980;1272;23819;-58
2024/02/21 08:41:21;;;;;;;;;;;;;;;0.95;100.00;100833.33;109815;1273;22462;-58
2024/02/21 08:43:53;;;;;;;;;;;;;;;0.97;100.00;100832.53;109930;1273;22437;-47
2024/02/21 08:46:20;;;;;;;;;;;;;;;1.01;100.00;100834.80;109892;1272;22447;-47
2024/02/21 08:48:47;;;;;;;;;;;;;;;1.06;100.00;100844.46;110054;1271;23789;-47
2024/02/21 08:51:14;;;;;;;;;;;;;;;1.11;100.00;100846.75;109970;1271;22573;-46
2024/02/21 08:53:41;;;;;;;;;;;;;;;1.14;100.00;100841.55;110000;1271;22598;-55
2024/02/21 08:56:09;;;;;;;;;;;;;;;1.15;100.00;100839.39;109991;1271;23019;-58
2024/02/21 08:58:38;;;;;;;;;;;;;;;1.19;100.00;100838.52;109778;1273;22433;-57
2024/02/21 09:01:06;;;;;;;;;;;;;;;1.20;100.00;100838.59;110133;1270;22484;-49
2024/02/21 09:03:34;;;;;;;;;;;;;;;1.22;100.00;100838.70;110015;1271;22514;-49
2024/02/21 09:06:06;;;;;;;;;;;;;;;1.26;100.00;100836.66;109789;1273;23578;-58
2024/02/21 09:08:36;;;;;;;;;;;;;;;1.30;100.00;100837.70;109896;1270;22434;-48
2024/02/21 09:11:10;;;;;;;;;;;;;;;1.34;100.00;100835.98;109426;1272;22504;-47
2024/02/21 09:13:39;;;;;;;;;;;;;;;1.37;100.00;100834.73;109884;1273;22915;-58
2024/02/21 09:16:06;;;;;;;;;;;;;;;1.41;100.00;100841.45;109812;1271;22463;-47
2024/02/21 09:18:33;;;;;;;;;;;;;;;1.41;100.00;100840.08;109710;1277;22922;-59
2024/02/21 09:21:00;;;;;;;;;;;;;;;1.43;100.00;100841.52;109764;1270;22526;-58
2024/02/21 09:23:31;;;;;;;;;;;;;;;1.46;100.00;100836.36;109923;1275;22884;-58
2024/02/21 09:26:00;;;;;;;;;;;;;;;1.48;100.00;100836.94;110020;1272;22459;-48
2024/02/21 09:28:27;;;;;;;;;;;;;;;1.48;100.00;100840.23;109868;1273;22475;-48
2024/02/21 09:30:55;;;;;;;;;;;;;;;1.49;100.00;100834.41;109851;1271;23252;-48
2024/02/21 09:33:21;;;;;;;;;;;;;;;1.51;100.00;100835.73;109994;1269;22506;-58
2024/02/21 09:35:58;;;;;;;;;;;;;;;1.54;100.00;100835.67;109947;1270;22723;-58
2024/02/21 09:38:25;;;;;;;;;;;;;;;1.54;100.00;100833.61;110034;1270;22469;-59
2024/02/21 09:41:01;;;;;;;;;;;;;;;1.55;100.00;100832.45;110028;1272;22986;-58
2024/02/21 09:43:29;;;;;;;;;;;;;;;1.55;100.00;100828.34;109867;1271;22521;-58
2024/02/21 09:45:58;;;;;;;;;;;;;;;1.57;100.00;100827.24;110046;1272;23412;-47
2024/02/21 09:48:29;;;;;;;;;;;;;;;1.58;100.00;100825.71;109937;1273;22496;-59
2024/02/21 09:51:02;;;;;;;;;;;;;;;1.58;100.00;100813.02;109683;1273;23896;-58
2024/02/21 09:53:29;;;;;;;;;;;;;;;1.62;100.00;100811.95;109704;1273;23219;-58
2024/02/21 09:55:55;;;;;;;;;;;;;;;1.67;100.00;100803.05;109966;1271;22479;-59
2024/02/21 09:58:23;;;;;;;;;;;;;;;1.72;100.00;100797.23;109663;1273;22551;-47
2024/02/21 10:00:50;;;;;;;;;;;;;;;1.76;100.00;100800.02;109881;1270;22595;-49
2024/02/21 10:03:18;;;;;;;;;;;;;;;1.79;100.00;100800.33;109755;1272;22889;-48
2024/02/21 10:05:49;;;;;;;;;;;;;;;1.79;100.00;100801.52;109669;1272;22435;-48
2024/02/21 10:08:16;;;;;;;;;;;;;;;1.80;100.00;100801.75;109780;1271;23037;-48
2024/02/21 10:10:44;;;;;;;;;;;;;;;1.83;100.00;100802.02;109604;1273;22513;-48
2024/02/21 10:13:24;;;;;;;;;;;;;;;1.83;100.00;100797.39;109742;1273;22993;-48
2024/02/21 10:16:09;;;;;;;;;;;;;;;1.85;100.00;100793.01;109749;1272;23006;-48
2024/02/21 10:30:36;;;;;;;;;;;;;;;2.04;100.00;100782.14;109964;1273;23019;-48
2024/02/21 10:33:59;;;;;;;;;;;;;;;2.08;100.00;100773.65;109964;1276;22927;-49
2024/02/21 10:36:27;;;;;;;;;;;;;;;2.08;100.00;100769.20;110090;1277;22531;-59
2024/02/21 10:46:57;;;;;;;;;;;;;;;2.21;100.00;100755.80;109995;1272;22963;-58
2024/02/21 10:50:50;;;;;;;;;;;;;;;2.25;100.00;100758.86;110246;1277;23486;-47
2024/02/21 10:54:05;;;;;;;;;;;;;;;2.25;100.00;100756.62;110227;1277;22490;-58
2024/02/21 10:57:27;;;;;;;;;;;;;;;2.26;100.00;100757.54;110231;1277;22948;-48
2024/02/21 11:11:49;;;;;;;;;;;;;;;2.34;100.00;100753.22;110052;1275;23295;-58
2024/02/21 11:18:28;;;;;;;;;;;;;;;2.43;100.00;100742.36;110224;1277;22529;-58
2024/02/21 11:21:56;;;;;;;;;;;;;;;2.51;100.00;100747.89;110197;1276;22516;-61
2024/02/21 11:25:36;;;;;;;;;;;;;;;2.58;100.00;100749.02;109878;1273;22476;-49
2024/02/21 11:29:17;;;;;;;;;;;;;;;2.62;100.00;100754.88;109966;1272;23069;-58
2024/02/21 11:31:49;;;;;;;;;;;;;;;2.67;100.00;100755.91;109922;1272;22586;-55
2024/02/21 11:34:29;;;;;;;;;;;;;;;2.68;100.00;100750.62;109718;1272;22493;-54
2024/02/21 11:37:57;;;;;;;;;;;;;;;2.68;100.00;100746.48;109944;1270;22456;-50
2024/02/21 11:40:43;;;;;;;;;;;;;;;2.70;100.00;100742.23;109934;1270;22959;-47
2024/02/21 11:43:09;;;;;;;;;;;;;;;2.73;100.00;100741.15;110054;1270;23904;-56
2024/02/21 11:45:36;;;;;;;;;;;;;;;2.77;100.00;100736.48;110007;1271;22454;-58
2024/02/21 11:48:05;;;;;;;;;;;;;;;2.82;100.00;100732.17;109980;1272;22937;-57
2024/02/21 11:50:32;;;;;;;;;;;;;;;2.85;100.00;100728.88;110092;1275;23668;-58
2024/02/21 11:52:59;;;;;;;;;;;;;;;2.89;100.00;100727.65;110148;1272;23276;-48
2024/02/21 11:55:26;;;;;;;;;;;;;;;2.93;100.00;100725.73;110181;1275;23194;-51
2024/02/21 11:57:53;;;;;;;;;;;;;;;2.97;100.00;100724.84;110006;1272;22542;-53
2024/02/21 12:00:24;;;;;;;;;;;;;;;3.01;100.00;100719.27;110009;1275;22469;-48
2024/02/21 12:02:51;;;;;;;;;;;;;;;3.03;100.00;100712.67;109975;1276;22453;-48
2024/02/21 12:05:21;;;;;;;;;;;;;;;3.08;100.00;100709.73;109966;1272;22488;-48
2024/02/21 12:07:48;;;;;;;;;;;;;;;3.11;100.00;100703.29;110029;1275;22520;-57
2024/02/21 12:10:15;;;;;;;;;;;;;;;3.13;100.00;100702.48;109798;1273;23099;-57
2024/02/21 12:12:42;;;;;;;;;;;;;;;3.16;100.00;100700.73;109743;1270;22927;-46
2024/02/21 12:15:09;;;;;;;;;;;;;;;3.21;100.00;100702.97;109863;1273;22457;-46
2024/02/21 12:17:36;;;;;;;;;;;;;;;3.24;100.00;100707.55;109894;1272;22793;-55
2024/02/21 12:20:08;;;;;;;;;;;;;;;3.25;100.00;100708.95;109942;1272;22453;-50
2024/02/21 12:22:35;;;;;;;;;;;;;;;3.25;100.00;100708.63;109964;1277;22540;-62
2024/02/21 12:25:03;;;;;;;;;;;;;;;3.28;100.00;100707.00;110086;1277;23099;-59
2024/02/21 12:27:30;;;;;;;;;;;;;;;3.31;100.00;100703.52;110083;1275;23725;-60
2024/02/21 12:29:57;;;;;;;;;;;;;;;3.34;100.00;100707.55;109936;1272;23418;-47
2024/02/21 12:32:36;;;;;;;;;;;;;;;3.37;100.00;100705.59;109992;1270;22482;-49
2024/02/21 12:35:26;;;;;;;;;;;;;;;3.40;100.00;100703.13;110107;1277;22472;-48
2024/02/21 12:38:30;;;;;;;;;;;;;;;3.44;100.00;100704.48;110103;1277;22420;-47
2024/02/21 12:41:15;;;;;;;;;;;;;;;3.45;100.00;100703.48;110014;1277;22593;-59
2024/02/21 12:43:54;;;;;;;;;;;;;;;3.48;100.00;100706.16;110084;1277;22585;-48
2024/02/21 12:50:52;;;;;;;;;;;;;;;3.54;100.00;100707.07;110186;1277;22565;-49
2024/02/21 12:53:37;;;;;;;;;;;;;;;3.55;100.00;100702.11;110158;1277;22580;-49
2024/02/21 12:56:05;;;;;;;;;;;;;;;3.56;100.00;100697.84;110193;1277;22596;-49
2024/02/21 12:58:31;;;;;;;;;;;;;;;3.58;100.00;100694.61;110040;1272;22985;-58
2024/02/21 13:00:59;;;;;;;;;;;;;;;3.62;100.00;100694.59;110068;1275;22511;-60
2024/02/21 13:03:26;;;;;;;;;;;;;;;3.67;100.00;100691.30;110064;1272;23274;-48
2024/02/21 13:05:54;;;;;;;;;;;;;;;3.70;100.00;100690.04;110115;1272;22953;-57
2024/02/21 13:08:22;;;;;;;;;;;;;;;3.73;100.00;100689.44;110180;1271;22497;-49
2024/02/21 13:10:49;;;;;;;;;;;;;;;3.75;100.00;100691.23;110058;1271;22500;-60
2024/02/21 13:13:18;;;;;;;;;;;;;;;3.76;100.00;100689.17;110058;1272;22437;-58
2024/02/21 13:15:45;;;;;;;;;;;;;;;3.76;100.00;100689.00;110029;1271;22444;-51
2024/02/21 13:18:12;;;;;;;;;;;;;;;3.75;100.00;100686.58;109943;1277;22576;-50
2024/02/21 13:20:39;;;;;;;;;;;;;;;3.77;100.00;100688.67;110190;1277;22444;-49
2024/02/21 13:23:06;;;;;;;;;;;;;;;3.77;100.00;100686.61;110131;1277;22459;-48
2024/02/21 13:25:33;;;;;;;;;;;;;;;3.78;100.00;100688.58;110168;1277;22451;-56
2024/02/21 13:28:00;;;;;;;;;;;;;;;3.79;100.00;100691.54;110148;1277;22544;-49
2024/02/21 13:30:27;;;;;;;;;;;;;;;3.80;100.00;100688.13;110198;1271;23226;-56
2024/02/21 13:32:54;;;;;;;;;;;;;;;3.81;100.00;100688.48;110198;1277;22434;-56
2024/02/21 13:35:21;;;;;;;;;;;;;;;3.81;100.00;100685.89;110213;1277;22514;-49
2024/02/21 13:37:48;;;;;;;;;;;;;;;3.83;100.00;100680.45;110230;1277;22442;-56
2024/02/21 13:40:16;;;;;;;;;;;;;;;3.84;100.00;100679.46;110258;1277;22448;-56
2024/02/21 13:42:43;;;;;;;;;;;;;;;3.85;100.00;100674.14;110228;1277;22569;-57
2024/02/21 13:45:09;;;;;;;;;;;;;;;3.84;100.00;100672.56;110278;1277;23107;-52
2024/02/21 13:47:36;;;;;;;;;;;;;;;3.82;100.00;100673.86;110247;1277;22507;-49
2024/02/21 13:50:10;;;;;;;;;;;;;;;3.81;100.00;100677.27;110197;1272;22441;-49
2024/02/21 13:52:37;;;;;;;;;;;;;;;3.79;100.00;100675.84;110177;1276;22456;-50
2024/02/21 13:55:04;;;;;;;;;;;;;;;3.79;100.00;100677.21;110243;1277;22427;-57
2024/02/21 13:57:31;;;;;;;;;;;;;;;3.80;100.00;100679.15;110240;1277;22535;-50
2024/02/21 13:59:59;;;;;;;;;;;;;;;3.80;100.00;100678.80;110228;1277;22437;-56
2024/02/21 14:02:26;;;;;;;;;;;;;;;3.80;100.00;100678.45;110227;1277;22496;-55
2024/02/21 14:04:52;;;;;;;;;;;;;;;3.80;100.00;100677.58;110224;1277;22435;-49
2024/02/21 14:07:19;;;;;;;;;;;;;;;3.80;100.00;100682.07;110202;1277;22557;-48
2024/02/21 14:09:46;;;;;;;;;;;;;;;3.81;100.00;100680.55;110180;1277;22476;-56
2024/02/21 14:12:13;;;;;;;;;;;;;;;3.83;100.00;100680.79;110257;1277;23261;-57
2024/02/21 14:14:41;;;;;;;;;;;;;;;3.83;100.00;100677.36;110307;1277;23245;-57
2024/02/21 14:17:07;;;;;;;;;;;;;;;3.85;100.00;100677.59;110314;1277;22459;-56
2024/02/21 14:19:34;;;;;;;;;;;;;;;3.86;100.00;100677.11;110261;1277;22475;-49
2024/02/21 14:22:02;;;;;;;;;;;;;;;3.88;100.00;100674.05;110245;1275;22520;-50
2024/02/21 14:24:29;;;;;;;;;;;;;;;3.89;100.00;100672.88;110220;1272;22499;-56
2024/02/21 14:26:56;;;;;;;;;;;;;;;3.89;100.00;100672.57;110294;1277;23092;-56
2024/02/21 14:29:22;;;;;;;;;;;;;;;3.89;100.00;100672.73;110244;1277;22449;-57
2024/02/21 14:31:49;;;;;;;;;;;;;;;3.89;100.00;100671.84;110333;1277;22421;-56
2024/02/21 14:34:16;;;;;;;;;;;;;;;3.88;100.00;100669.57;110269;1277;22460;-56
2024/02/21 14:36:43;;;;;;;;;;;;;;;3.87;100.00;100675.58;110290;1277;22476;-50
2024/02/21 14:39:10;;;;;;;;;;;;;;;3.86;100.00;100674.34;110217;1277;22422;-56
2024/02/21 14:41:37;;;;;;;;;;;;;;;3.85;100.00;100673.96;110268;1277;22590;-49
2024/02/21 14:44:04;;;;;;;;;;;;;;;3.84;100.00;100672.90;110239;1277;22576;-57
2024/02/21 14:46:31;;;;;;;;;;;;;;;3.82;100.00;100672.83;110232;1277;22486;-56
2024/02/21 14:48:58;;;;;;;;;;;;;;;3.81;100.00;100667.93;110292;1277;22562;-49
2024/02/21 14:51:25;;;;;;;;;;;;;;;3.81;100.00;100670.88;110307;1277;22488;-50
2024/02/21 14:53:51;;;;;;;;;;;;;;;3.81;100.00;100665.72;110265;1277;22428;-58
2024/02/21 14:56:18;;;;;;;;;;;;;;;3.82;100.00;100659.86;110296;1277;22908;-50
2024/02/21 14:58:47;;;;;;;;;;;;;;;3.83;100.00;100663.52;110212;1277;22531;-57
2024/02/21 15:01:15;;;;;;;;;;;;;;;3.84;100.00;100658.76;110195;1277;22541;-50
2024/02/21 15:03:45;;;;;;;;;;;;;;;3.85;100.00;100657.56;110204;1277;22525;-57
2024/02/21 15:06:12;;;;;;;;;;;;;;;3.86;100.00;100656.05;110225;1277;22452;-57
2024/02/21 15:08:39;;;;;;;;;;;;;;;3.88;100.00;100656.61;110231;1277;22522;-57
2024/02/21 15:11:06;;;;;;;;;;;;;;;3.88;100.00;100655.40;110279;1277;22460;-51
2024/02/21 15:13:32;;;;;;;;;;;;;;;3.88;100.00;100655.08;110308;1277;23238;-57
2024/02/21 15:15:59;;;;;;;;;;;;;;;3.89;100.00;100652.55;110270;1277;22600;-57
2024/02/21 15:18:26;;;;;;;;;;;;;;;3.90;100.00;100652.56;110307;1277;22431;-50
2024/02/21 15:20:53;;;;;;;;;;;;;;;3.90;100.00;100651.17;110256;1277;23153;-57
